createdAt,value
2022-11-15T00:02:10.800Z,75.97
2022-11-15T00:04:40.407Z,75.58
2022-11-15T00:07:17.888Z,75.10
2022-11-15T00:09:56.735Z,74.38
2022-11-15T00:12:26.226Z,74.69
2022-11-15T00:14:55.687Z,74.98
2022-11-15T00:17:25.105Z,75.40
2022-11-15T00:19:54.550Z,74.78
2022-11-15T00:22:26.585Z,75.17
2022-11-15T00:24:56.132Z,75.50
2022-11-15T00:27:25.573Z,75.51
2022-11-15T00:29:55.065Z,75.68
2022-11-15T00:32:24.577Z,75.10
2022-11-15T00:34:54.041Z,75.03
2022-11-15T00:37:26.171Z,75.47
2022-11-15T00:39:55.620Z,75.09
2022-11-15T00:42:25.051Z,75.32
2022-11-15T00:44:54.525Z,74.67
2022-11-15T00:47:24.005Z,74.44
2022-11-15T00:49:53.506Z,75.14
2022-11-15T00:52:23.008Z,75.23
2022-11-15T00:54:55.069Z,75.55
2022-11-15T00:57:24.551Z,75.32
2022-11-15T00:59:54.019Z,76.08
2022-11-15T01:02:23.502Z,76.63
2022-11-15T01:04:53.016Z,76.54
2022-11-15T01:07:22.597Z,76.24
2022-11-15T01:09:54.778Z,75.85
2022-11-15T01:12:24.248Z,75.39
2022-11-15T01:14:53.768Z,75.16
2022-11-15T01:17:23.352Z,74.55
2022-11-15T01:19:52.830Z,74.83
2022-11-15T01:22:22.347Z,74.78
2022-11-15T01:24:55.704Z,74.79
2022-11-15T01:27:25.218Z,74.99
2022-11-15T01:29:54.721Z,74.96
2022-11-15T01:32:24.300Z,74.61
2022-11-15T01:37:32.093Z,74.77
2022-11-15T01:40:04.565Z,75.33
2022-11-15T01:42:34.119Z,74.52
2022-11-15T01:45:03.589Z,74.92
2022-11-15T01:47:34.232Z,76.33
2022-11-15T01:50:05.188Z,77.04
2022-11-15T01:52:35.192Z,76.02
2022-11-15T01:55:10.117Z,75.85
2022-11-15T01:57:39.772Z,76.17
2022-11-15T02:00:10.692Z,75.30
2022-11-15T02:02:40.365Z,75.55
2022-11-15T02:05:10.800Z,76.16
2022-11-15T02:07:40.386Z,76.42
2022-11-15T02:10:14.112Z,76.62
2022-11-15T02:12:43.624Z,76.65
2022-11-15T02:15:13.198Z,75.93
2022-11-15T02:18:01.969Z,75.99
2022-11-15T02:20:51.685Z,76.37
2022-11-15T02:23:56.007Z,76.38
2022-11-15T02:26:49.022Z,76.56
2022-11-15T02:29:21.047Z,75.64
2022-11-15T02:31:55.382Z,74.96
2022-11-15T02:34:28.958Z,74.85
2022-11-15T02:37:03.162Z,75.02
2022-11-15T02:39:36.823Z,74.87
2022-11-15T02:42:26.849Z,75.13
2022-11-15T02:44:53.742Z,74.95
2022-11-15T02:47:25.878Z,75.38
2022-11-15T02:49:56.918Z,75.77
2022-11-15T02:52:27.928Z,75.11
2022-11-15T02:54:57.837Z,74.88
2022-11-15T02:57:31.990Z,74.63
2022-11-15T03:00:07.174Z,74.39
2022-11-15T03:02:56.091Z,76.82
2022-11-15T03:05:29.399Z,77.22
2022-11-15T03:08:02.654Z,77.97
2022-11-15T03:10:36.410Z,77.75
2022-11-15T03:13:13.384Z,77.53
2022-11-15T03:15:46.228Z,77.85
2022-11-15T03:18:19.994Z,77.58
2022-11-15T03:20:49.853Z,76.95
2022-11-15T03:23:19.336Z,76.48
2022-11-15T03:25:50.051Z,76.32
2022-11-15T03:28:21.653Z,79.41
2022-11-15T03:30:51.155Z,79.55
2022-11-15T03:33:23.314Z,79.40
2022-11-15T03:35:52.745Z,78.21
2022-11-15T03:38:24.613Z,79.27
2022-11-15T03:40:57.368Z,80.02
2022-11-15T03:43:32.426Z,78.93
2022-11-15T03:46:04.362Z,77.84
2022-11-15T03:48:38.217Z,77.52
2022-11-15T03:51:08.086Z,76.80
2022-11-15T03:53:37.606Z,76.52
2022-11-15T03:56:07.484Z,76.29
2022-11-15T03:58:37.090Z,76.07
2022-11-15T04:01:06.613Z,75.76
2022-11-15T04:03:38.717Z,75.98
2022-11-15T04:06:08.848Z,76.29
2022-11-15T04:08:38.374Z,75.65
2022-11-15T04:11:08.059Z,76.47
2022-11-15T04:13:37.640Z,77.41
2022-11-15T04:16:07.497Z,78.11
2022-11-15T04:18:39.561Z,77.79
2022-11-15T04:21:21.662Z,76.45
2022-11-15T04:24:03.618Z,76.07
2022-11-15T04:26:33.087Z,76.28
2022-11-15T04:29:15.031Z,75.55
2022-11-15T04:31:44.507Z,75.79
2022-11-15T04:34:16.585Z,76.11
2022-11-15T04:36:58.538Z,76.14
2022-11-15T04:39:28.053Z,75.68
2022-11-15T04:41:57.533Z,75.39
2022-11-15T04:44:27.028Z,75.38
2022-11-15T04:46:56.513Z,75.73
2022-11-15T04:49:28.565Z,75.82
2022-11-15T04:51:58.050Z,76.16
2022-11-15T04:54:27.645Z,76.30
2022-11-15T04:56:57.125Z,74.96
2022-11-15T04:59:26.613Z,74.88
2022-11-15T05:01:56.100Z,74.78
2022-11-15T05:04:25.776Z,75.00
2022-11-15T05:06:55.310Z,75.17
2022-11-15T05:09:24.884Z,75.47
2022-11-15T05:11:54.429Z,75.78
2022-11-15T05:14:23.903Z,75.83
2022-11-15T05:16:53.366Z,76.29
2022-11-15T05:19:22.862Z,76.50
2022-11-15T05:21:54.937Z,76.68
2022-11-15T05:24:24.461Z,76.61
2022-11-15T05:26:53.965Z,76.09
2022-11-15T05:29:23.608Z,75.71
2022-11-15T05:31:53.076Z,75.74
2022-11-15T05:34:23.755Z,75.90
2022-11-15T05:36:56.058Z,76.18
2022-11-15T05:39:27.033Z,75.73
2022-11-15T05:41:57.290Z,75.51
2022-11-15T05:44:27.398Z,75.51
2022-11-15T05:46:56.962Z,76.19
2022-11-15T05:49:28.017Z,76.68
2022-11-15T05:51:59.848Z,76.07
2022-11-15T05:54:29.360Z,75.81
2022-11-15T05:56:58.852Z,76.10
2022-11-15T05:59:28.378Z,75.89
2022-11-15T06:01:57.881Z,75.50
2022-11-15T06:04:27.423Z,75.22
2022-11-15T06:06:57.004Z,76.16
2022-11-15T06:09:29.211Z,76.43
2022-11-15T06:11:58.690Z,76.14
2022-11-15T06:14:28.292Z,76.65
2022-11-15T06:16:57.780Z,76.62
2022-11-15T06:19:27.309Z,76.55
2022-11-15T06:21:56.763Z,76.64
2022-11-15T06:24:28.851Z,76.28
2022-11-15T06:26:58.523Z,75.98
2022-11-15T06:29:28.014Z,76.05
2022-11-15T06:31:57.503Z,76.60
2022-11-15T06:34:26.969Z,76.43
2022-11-15T06:36:56.445Z,75.95
2022-11-15T06:39:25.957Z,75.99
2022-11-15T06:41:58.091Z,75.67
2022-11-15T06:44:27.646Z,75.42
2022-11-15T06:46:57.132Z,74.98
2022-11-15T06:49:26.649Z,75.02
2022-11-15T06:51:56.118Z,75.05
2022-11-15T06:54:25.882Z,75.70
2022-11-15T06:56:58.014Z,75.63
2022-11-15T06:59:27.524Z,75.71
2022-11-15T07:01:57.004Z,75.63
2022-11-15T07:04:26.526Z,74.84
2022-11-15T07:06:56.037Z,74.92
2022-11-15T07:09:25.800Z,74.96
2022-11-15T07:11:57.857Z,75.08
2022-11-15T07:14:27.369Z,74.30
2022-11-15T07:16:56.852Z,74.27
2022-11-15T07:19:27.770Z,73.84
2022-11-15T07:21:57.247Z,74.45
2022-11-15T07:24:26.749Z,74.63
2022-11-15T07:26:59.005Z,75.00
2022-11-15T07:29:28.878Z,74.89
2022-11-15T07:31:58.758Z,74.63
2022-11-15T07:34:28.250Z,74.23
2022-11-15T07:36:57.752Z,74.45
2022-11-15T07:39:27.245Z,74.88
2022-11-15T07:42:19.353Z,74.31
2022-11-15T07:44:48.874Z,73.84
2022-11-15T07:47:18.443Z,73.72
2022-11-15T07:49:47.915Z,73.48
2022-11-15T07:52:17.468Z,73.63
2022-11-15T07:54:46.960Z,73.74
2022-11-15T07:57:19.012Z,73.62
2022-11-15T07:59:48.467Z,73.00
2022-11-15T08:02:18.952Z,73.25
2022-11-15T08:04:48.492Z,73.24
2022-11-15T08:07:17.952Z,73.13
2022-11-15T08:09:47.430Z,73.05
2022-11-15T08:12:19.630Z,72.98
2022-11-15T08:14:49.417Z,72.94
2022-11-15T08:17:18.918Z,72.84
2022-11-15T08:19:48.921Z,72.33
2022-11-15T08:22:18.409Z,71.46
2022-11-15T08:24:47.906Z,71.23
2022-11-15T08:27:19.961Z,71.06
2022-11-15T08:29:49.581Z,70.35
2022-11-15T08:32:19.077Z,70.67
2022-11-15T08:34:48.542Z,70.08
2022-11-15T08:37:18.005Z,70.24
2022-11-15T08:39:47.484Z,70.34
2022-11-15T08:42:20.072Z,70.33
2022-11-15T08:44:52.307Z,70.53
2022-11-15T08:47:21.763Z,70.79
2022-11-15T08:49:51.206Z,71.28
2022-11-15T08:52:20.668Z,71.42
2022-11-15T08:54:50.214Z,70.69
2022-11-15T08:57:19.690Z,70.68
2022-11-15T08:59:51.732Z,70.42
2022-11-15T09:02:21.187Z,70.49
2022-11-15T09:04:50.654Z,69.63
2022-11-15T09:07:20.169Z,70.50
2022-11-15T09:09:49.694Z,70.19
2022-11-15T09:12:19.158Z,70.76
2022-11-15T09:14:48.634Z,71.99
2022-11-15T09:17:24.749Z,72.62
2022-11-15T09:19:54.713Z,73.48
2022-11-15T09:22:24.194Z,74.62
2022-11-15T09:24:53.685Z,74.42
2022-11-15T09:27:23.287Z,74.04
2022-11-15T09:29:52.775Z,73.22
2022-11-15T09:32:25.289Z,72.55
2022-11-15T09:34:54.732Z,72.12
2022-11-15T09:37:24.222Z,72.95
2022-11-15T09:39:53.680Z,73.82
2022-11-15T09:42:29.770Z,74.92
2022-11-15T09:45:05.418Z,74.95
2022-11-15T09:47:53.494Z,74.00
2022-11-15T09:50:26.499Z,72.80
2022-11-15T09:52:55.973Z,71.96
2022-11-15T09:55:25.416Z,72.14
2022-11-15T09:57:59.949Z,71.65
2022-11-15T10:00:46.527Z,71.62
2022-11-15T10:03:20.672Z,71.41
2022-11-15T10:05:50.764Z,71.61
2022-11-15T10:08:28.686Z,71.93
2022-11-15T10:11:30.409Z,71.38
2022-11-15T10:13:50.783Z,71.38
2022-11-15T10:16:48.391Z,71.38
2022-11-15T10:19:24.653Z,72.78
2022-11-15T10:22:03.853Z,74.06
2022-11-15T10:24:37.720Z,75.23
2022-11-15T10:27:11.131Z,75.23
2022-11-15T10:29:40.585Z,75.92
2022-11-15T10:32:10.085Z,75.86
2022-11-15T10:34:42.443Z,74.48
2022-11-15T10:37:11.897Z,73.86
2022-11-15T10:39:41.441Z,73.17
2022-11-15T10:42:20.933Z,73.31
2022-11-15T10:44:50.426Z,75.05
2022-11-15T10:47:39.656Z,75.73
2022-11-15T10:50:30.742Z,76.21
2022-11-15T10:53:01.087Z,75.62
2022-11-15T10:55:31.500Z,76.78
2022-11-15T10:58:06.456Z,78.57
2022-11-15T11:00:40.306Z,79.88
2022-11-15T11:03:12.696Z,81.83
2022-11-15T11:05:44.725Z,80.74
2022-11-15T11:08:25.157Z,79.78
2022-11-15T11:11:02.792Z,79.81
2022-11-15T11:13:36.932Z,79.42
2022-11-15T11:16:19.887Z,78.67
2022-11-15T11:18:53.399Z,77.16
2022-11-15T11:21:33.013Z,75.23
2022-11-15T11:24:08.913Z,76.48
2022-11-15T11:26:46.018Z,75.75
2022-11-15T11:29:25.013Z,75.11
2022-11-15T11:31:58.530Z,75.33
2022-11-15T11:34:38.925Z,73.76
2022-11-15T11:37:15.913Z,72.69
2022-11-15T11:40:00.497Z,73.03
2022-11-15T11:42:33.884Z,71.86
2022-11-15T11:45:06.858Z,71.53
2022-11-15T11:47:39.414Z,71.11
2022-11-15T11:50:15.323Z,70.02
2022-11-15T11:52:52.579Z,69.35
2022-11-15T11:55:23.760Z,69.10
2022-11-15T11:57:57.063Z,68.38
2022-11-15T12:00:28.608Z,69.93
2022-11-15T12:03:07.160Z,71.61
2022-11-15T12:05:39.862Z,70.86
2022-11-15T12:08:27.742Z,71.78
2022-11-15T12:11:01.559Z,72.48
2022-11-15T12:13:34.474Z,73.77
2022-11-15T12:16:10.264Z,75.21
2022-11-15T12:18:40.086Z,77.38
2022-11-15T12:21:12.184Z,77.79
2022-11-15T12:23:46.636Z,78.06
2022-11-15T12:26:23.192Z,78.20
2022-11-15T12:29:07.032Z,79.68
2022-11-15T12:31:40.967Z,79.63
2022-11-15T12:34:19.158Z,78.78
2022-11-15T12:36:48.670Z,78.69
2022-11-15T12:39:20.894Z,78.80
2022-11-15T12:42:40.663Z,77.95
2022-11-15T12:45:28.164Z,76.24
2022-11-15T12:47:57.644Z,75.27
2022-11-15T12:50:59.929Z,73.22
2022-11-15T12:53:33.280Z,71.16
2022-11-15T12:56:26.807Z,70.39
2022-11-15T12:58:58.567Z,70.06
2022-11-15T13:01:59.917Z,69.60
2022-11-15T13:04:30.000Z,69.23
2022-11-15T13:07:00.631Z,68.76
2022-11-15T13:09:55.030Z,68.75
2022-11-15T13:12:55.423Z,68.57
2022-11-15T13:15:55.405Z,68.75
2022-11-15T13:18:39.337Z,68.45
2022-11-15T13:21:34.982Z,68.39
2022-11-15T13:24:04.456Z,67.49
2022-11-15T13:26:33.934Z,67.54
2022-11-15T13:29:06.046Z,67.90
2022-11-15T13:31:39.615Z,68.24
2022-11-15T13:34:49.340Z,68.74
2022-11-15T13:39:40.580Z,70.00
2022-11-15T13:42:17.407Z,70.15
2022-11-15T13:45:01.070Z,70.51
2022-11-15T13:47:31.302Z,70.55
2022-11-15T13:50:02.065Z,70.59
2022-11-15T13:52:32.702Z,71.00
2022-11-15T13:55:04.688Z,72.06
2022-11-15T13:57:36.860Z,72.54
2022-11-15T14:00:25.187Z,72.06
2022-11-15T14:02:54.706Z,72.05
2022-11-15T14:05:27.566Z,72.30
2022-11-15T14:07:57.389Z,74.84
2022-11-15T14:10:31.885Z,74.70
2022-11-15T14:13:01.393Z,74.59
2022-11-15T14:15:35.243Z,74.40
2022-11-15T14:18:05.465Z,75.02
2022-11-15T14:20:36.405Z,75.59
2022-11-15T14:23:06.744Z,75.38
2022-11-15T14:25:36.527Z,74.62
2022-11-15T14:28:20.670Z,73.74
2022-11-15T14:30:56.484Z,73.48
2022-11-15T14:33:29.396Z,73.02
2022-11-15T14:35:59.353Z,74.82
2022-11-15T14:38:29.030Z,74.29
2022-11-15T14:40:59.528Z,73.88
2022-11-15T14:43:29.147Z,73.56
2022-11-15T14:46:01.673Z,75.11
2022-11-15T14:48:31.580Z,74.57
2022-11-15T14:51:01.266Z,73.28
2022-11-15T14:53:31.054Z,73.40
2022-11-15T14:56:00.574Z,73.64
2022-11-15T14:58:41.181Z,72.82
2022-11-15T15:01:17.220Z,72.69
2022-11-15T15:03:47.334Z,72.88
2022-11-15T15:06:18.475Z,72.12
2022-11-15T15:08:49.483Z,72.19
2022-11-15T15:11:20.920Z,74.39
2022-11-15T15:13:50.376Z,74.55
2022-11-15T15:16:22.755Z,76.21
2022-11-15T15:18:52.249Z,74.65
2022-11-15T15:21:24.171Z,74.23
2022-11-15T15:23:54.980Z,73.43
2022-11-15T15:26:24.509Z,72.69
2022-11-15T15:28:54.257Z,72.11
2022-11-15T15:31:26.358Z,72.33
2022-11-15T15:33:55.858Z,72.18
2022-11-15T15:36:25.373Z,72.20
2022-11-15T15:38:54.910Z,71.85
2022-11-15T15:41:24.936Z,72.29
2022-11-15T15:43:54.448Z,72.08
2022-11-15T15:46:26.603Z,71.72
2022-11-15T15:48:56.074Z,71.53
2022-11-15T15:51:25.551Z,71.47
2022-11-15T15:53:58.137Z,71.54
2022-11-15T15:56:29.159Z,71.34
2022-11-15T15:58:58.821Z,71.81
2022-11-15T16:01:31.062Z,71.63
2022-11-15T16:04:00.574Z,71.88
2022-11-15T16:06:37.759Z,72.06
2022-11-15T16:09:15.832Z,71.43
2022-11-15T16:11:45.846Z,71.08
2022-11-15T16:14:15.410Z,71.53
2022-11-15T16:16:47.526Z,71.76
2022-11-15T16:19:17.008Z,71.91
2022-11-15T16:21:46.525Z,71.93
2022-11-15T16:24:15.981Z,71.87
2022-11-15T16:26:45.480Z,71.17
2022-11-15T16:29:14.928Z,71.03
2022-11-15T16:31:47.130Z,70.94
2022-11-15T16:34:16.638Z,70.85
2022-11-15T16:36:46.137Z,70.78
2022-11-15T16:39:19.479Z,70.75
2022-11-15T16:41:49.176Z,70.89
2022-11-15T16:44:18.669Z,71.09
2022-11-15T16:46:52.126Z,71.12
2022-11-15T16:49:21.844Z,71.13
2022-11-15T16:51:52.254Z,71.33
2022-11-15T16:54:22.025Z,71.54
2022-11-15T16:56:51.486Z,70.91
2022-11-15T16:59:21.254Z,70.73
2022-11-15T17:01:55.977Z,70.17
2022-11-15T17:04:27.869Z,69.93
2022-11-15T17:06:57.421Z,70.20
2022-11-15T17:09:27.130Z,70.17
2022-11-15T17:11:58.788Z,70.07
2022-11-15T17:14:28.267Z,69.77
2022-11-15T17:17:00.763Z,69.69
2022-11-15T17:19:30.268Z,70.09
2022-11-15T17:21:59.887Z,70.01
2022-11-15T17:24:29.349Z,69.90
2022-11-15T17:26:58.836Z,69.71
2022-11-15T17:29:28.358Z,70.27
2022-11-15T17:32:00.433Z,70.14
2022-11-15T17:34:29.939Z,70.08
2022-11-15T17:36:59.581Z,69.41
2022-11-15T17:39:29.083Z,69.70
2022-11-15T17:41:58.766Z,68.93
2022-11-15T17:44:28.353Z,68.78
2022-11-15T17:47:00.437Z,69.10
2022-11-15T17:49:30.178Z,69.26
2022-11-15T17:51:59.639Z,68.91
2022-11-15T17:54:29.087Z,69.17
2022-11-15T17:56:58.542Z,68.84
2022-11-15T17:59:28.061Z,68.82
2022-11-15T18:02:00.103Z,68.87
2022-11-15T18:04:29.950Z,69.01
2022-11-15T18:06:59.517Z,69.03
2022-11-15T18:09:29.241Z,68.88
2022-11-15T18:11:58.723Z,69.28
2022-11-15T18:14:28.956Z,69.58
2022-11-15T18:17:01.089Z,69.69
2022-11-15T18:19:30.545Z,69.50
2022-11-15T18:22:00.957Z,69.23
2022-11-15T18:24:31.455Z,70.40
2022-11-15T18:27:01.164Z,70.56
2022-11-15T18:29:30.986Z,70.32
2022-11-15T18:32:06.380Z,70.51
2022-11-15T18:34:35.897Z,70.88
2022-11-15T18:37:05.402Z,70.71
2022-11-15T18:39:34.913Z,70.80
2022-11-15T18:42:04.541Z,70.33
2022-11-15T18:44:34.520Z,70.14
2022-11-15T18:47:06.665Z,69.58
2022-11-15T18:49:36.177Z,69.52
2022-11-15T18:52:05.776Z,69.52
2022-11-15T18:54:35.355Z,69.92
2022-11-15T18:57:04.838Z,70.39
2022-11-15T18:59:34.356Z,69.95
2022-11-15T19:02:06.432Z,70.37
2022-11-15T19:04:35.912Z,71.13
2022-11-15T19:07:05.434Z,71.24
2022-11-15T19:09:35.374Z,71.01
2022-11-15T19:12:04.871Z,71.25
2022-11-15T19:14:34.348Z,72.16
2022-11-15T19:17:06.447Z,73.36
2022-11-15T19:19:35.896Z,74.60
2022-11-15T19:22:05.393Z,75.29
2022-11-15T19:24:35.630Z,74.89
2022-11-15T19:27:05.117Z,75.27
2022-11-15T19:29:34.619Z,76.02
2022-11-15T19:32:07.119Z,75.76
2022-11-15T19:34:36.611Z,75.24
2022-11-15T19:37:06.103Z,74.93
2022-11-15T19:39:39.773Z,75.67
2022-11-15T19:42:10.601Z,75.60
2022-11-15T19:44:40.076Z,75.27
2022-11-15T19:47:12.314Z,76.13
2022-11-15T19:49:41.827Z,75.81
2022-11-15T19:52:11.420Z,75.79
2022-11-15T19:54:40.931Z,76.75
2022-11-15T19:57:10.394Z,77.12
2022-11-15T19:59:39.886Z,76.47
2022-11-15T20:02:12.220Z,76.32
2022-11-15T20:04:41.670Z,76.06
2022-11-15T20:07:12.206Z,75.74
2022-11-15T20:09:41.724Z,75.50
2022-11-15T20:12:11.276Z,74.65
2022-11-15T20:14:40.730Z,74.08
2022-11-15T20:17:13.621Z,74.39
2022-11-15T20:19:43.558Z,75.50
2022-11-15T20:22:13.057Z,75.59
2022-11-15T20:24:42.549Z,76.31
2022-11-15T20:27:12.382Z,76.19
2022-11-15T20:29:44.843Z,77.26
2022-11-15T20:32:17.178Z,77.70
2022-11-15T20:34:51.436Z,78.79
2022-11-15T20:37:23.358Z,79.32
2022-11-15T20:39:52.825Z,78.17
2022-11-15T20:42:22.351Z,77.48
2022-11-15T20:44:51.823Z,78.12
2022-11-15T20:47:29.020Z,77.51
2022-11-15T20:50:14.988Z,77.67
2022-11-15T20:52:49.792Z,77.95
2022-11-15T20:55:19.478Z,78.37
2022-11-15T20:57:49.272Z,77.57
2022-11-15T21:00:22.345Z,77.37
2022-11-15T21:02:54.485Z,77.83
2022-11-15T21:05:23.963Z,77.82
2022-11-15T21:07:53.458Z,78.05
2022-11-15T21:10:35.598Z,77.27
2022-11-15T21:13:05.042Z,76.94
2022-11-15T21:15:37.288Z,77.15
2022-11-15T21:18:09.446Z,77.04
2022-11-15T21:20:38.932Z,76.51
2022-11-15T21:23:08.420Z,77.16
2022-11-15T21:25:38.009Z,76.89
2022-11-15T21:28:07.569Z,77.01
2022-11-15T21:30:37.070Z,77.18
2022-11-15T21:33:09.133Z,77.27
2022-11-15T21:35:38.598Z,76.16
2022-11-15T21:38:08.122Z,77.16
2022-11-15T21:40:37.614Z,77.26
2022-11-15T21:43:07.073Z,76.74
2022-11-15T21:45:36.549Z,76.59
2022-11-15T21:48:06.102Z,77.72
2022-11-15T21:50:38.209Z,79.06
2022-11-15T21:53:07.754Z,77.94
2022-11-15T21:55:37.216Z,77.64
2022-11-15T21:58:06.918Z,77.90
2022-11-15T22:00:48.939Z,78.42
2022-11-15T22:03:18.465Z,77.99
2022-11-15T22:05:50.523Z,78.28
2022-11-15T22:08:20.020Z,78.02
2022-11-15T22:10:49.511Z,77.26
2022-11-15T22:13:19.032Z,77.82
2022-11-15T22:15:48.654Z,77.66
2022-11-15T22:18:22.252Z,77.75
2022-11-15T22:20:59.088Z,78.14
2022-11-15T22:23:29.243Z,78.44
2022-11-15T22:25:58.923Z,80.87
2022-11-15T22:28:28.540Z,79.22
2022-11-15T22:30:58.163Z,78.46
2022-11-15T22:33:28.850Z,80.18
2022-11-15T22:36:01.162Z,82.06
2022-11-15T22:38:31.308Z,82.33
2022-11-15T22:41:01.080Z,82.23
2022-11-15T22:43:30.625Z,81.26
2022-11-15T22:46:00.910Z,82.16
2022-11-15T22:48:31.566Z,82.61
2022-11-15T22:51:03.786Z,83.38
2022-11-15T22:53:33.336Z,83.25
2022-11-15T22:56:04.356Z,83.71
2022-11-15T22:58:34.737Z,83.57
2022-11-15T23:01:05.193Z,83.84
2022-11-15T23:03:35.029Z,83.08
2022-11-15T23:06:08.501Z,83.85
2022-11-15T23:08:38.403Z,83.65
2022-11-15T23:11:20.985Z,84.31
2022-11-15T23:13:52.423Z,83.51
2022-11-15T23:16:37.221Z,83.71
2022-11-15T23:19:07.895Z,83.15
2022-11-15T23:21:53.330Z,84.69
2022-11-15T23:24:23.073Z,84.62
2022-11-15T23:26:54.443Z,85.49
2022-11-15T23:29:25.092Z,86.25
2022-11-15T23:32:07.183Z,86.18
2022-11-15T23:34:39.008Z,85.97
2022-11-15T23:37:11.620Z,84.71
2022-11-15T23:39:41.151Z,84.51
2022-11-15T23:42:19.634Z,85.08
2022-11-15T23:44:50.703Z,84.93
2022-11-15T23:47:20.434Z,85.16
2022-11-15T23:49:49.979Z,85.16
2022-11-15T23:52:23.110Z,85.80
2022-11-15T23:54:52.694Z,86.25
2022-11-15T23:57:22.370Z,85.17
2022-11-15T23:59:51.911Z,86.09
